createdAt,value
2023-03-17T00:02:46.113Z,20.02
2023-03-17T00:06:48.239Z,19.72
2023-03-17T00:10:50.987Z,19.47
2023-03-17T00:14:52.730Z,19.27
2023-03-17T00:18:55.612Z,19.12
2023-03-17T00:23:00.169Z,18.99
2023-03-17T00:27:02.425Z,18.88
2023-03-17T00:31:18.428Z,18.79
2023-03-17T00:35:24.051Z,18.71
2023-03-17T00:39:25.801Z,18.63
2023-03-17T00:43:30.698Z,18.56
2023-03-17T00:47:32.796Z,18.52
2023-03-17T00:51:34.525Z,18.47
2023-03-17T00:55:37.260Z,18.42
2023-03-17T00:59:42.401Z,18.37
2023-03-17T01:03:46.008Z,18.35
2023-03-17T01:07:53.053Z,18.33
2023-03-17T01:11:55.913Z,18.32
2023-03-17T01:15:57.771Z,18.32
2023-03-17T01:19:59.536Z,18.30
2023-03-17T01:24:01.699Z,18.30
2023-03-17T01:28:03.672Z,18.27
2023-03-17T01:32:05.852Z,18.27
2023-03-17T01:36:07.930Z,18.25
2023-03-17T01:40:15.665Z,18.25
2023-03-17T01:44:19.112Z,18.24
2023-03-17T01:48:23.030Z,18.23
2023-03-17T01:52:24.830Z,18.20
2023-03-17T01:56:26.749Z,18.18
2023-03-17T02:00:29.763Z,18.18
2023-03-17T02:04:32.691Z,18.15
2023-03-17T02:08:34.935Z,18.14
2023-03-17T02:12:36.911Z,18.13
2023-03-17T02:16:38.794Z,18.12
2023-03-17T02:20:40.457Z,18.12
2023-03-17T02:24:49.108Z,18.12
2023-03-17T02:28:50.771Z,18.11
2023-03-17T02:32:53.807Z,18.11
2023-03-17T02:36:57.227Z,18.09
2023-03-17T02:40:59.195Z,18.09
2023-03-17T02:45:01.252Z,18.07
2023-03-17T02:49:04.181Z,18.05
2023-03-17T02:53:06.786Z,18.03
2023-03-17T02:57:08.866Z,18.01
2023-03-17T03:01:10.828Z,17.98
2023-03-17T03:05:12.800Z,17.93
2023-03-17T03:09:15.437Z,17.86
2023-03-17T03:13:17.528Z,17.80
2023-03-17T03:17:19.456Z,17.74
2023-03-17T03:21:22.205Z,17.69
2023-03-17T03:25:24.086Z,17.63
2023-03-17T03:29:25.921Z,17.59
2023-03-17T03:33:28.528Z,17.57
2023-03-17T03:37:30.404Z,17.53
2023-03-17T03:41:32.094Z,17.50
2023-03-17T03:45:34.663Z,17.48
2023-03-17T03:49:36.496Z,17.46
2023-03-17T03:53:38.207Z,17.42
2023-03-17T03:57:39.964Z,17.40
2023-03-17T04:01:41.738Z,17.39
2023-03-17T04:05:43.441Z,17.37
2023-03-17T04:09:45.826Z,17.36
2023-03-17T04:13:47.556Z,17.34
2023-03-17T04:17:49.467Z,17.34
2023-03-17T04:21:53.569Z,17.32
2023-03-17T04:25:56.356Z,17.31
2023-03-17T04:29:58.336Z,17.29
2023-03-17T04:34:00.065Z,17.28
2023-03-17T04:38:01.934Z,17.26
2023-03-17T04:42:04.979Z,17.26
2023-03-17T04:46:06.777Z,17.24
2023-03-17T04:50:09.981Z,17.24
2023-03-17T04:54:12.329Z,17.23
2023-03-17T04:58:29.547Z,17.22
2023-03-17T05:02:32.396Z,17.19
2023-03-17T05:06:34.529Z,17.18
2023-03-17T05:10:36.328Z,17.17
2023-03-17T05:14:38.210Z,17.17
2023-03-17T05:18:39.920Z,17.15
2023-03-17T05:22:41.813Z,17.14
2023-03-17T05:26:43.509Z,17.13
2023-03-17T05:30:46.073Z,17.12
2023-03-17T05:34:48.005Z,17.12
2023-03-17T05:38:49.753Z,17.10
2023-03-17T05:42:51.653Z,17.08
2023-03-17T05:46:53.376Z,17.07
2023-03-17T05:50:55.201Z,17.07
2023-03-17T05:54:56.925Z,17.05
2023-03-17T05:58:58.646Z,17.04
2023-03-17T06:03:00.317Z,17.02
2023-03-17T06:07:02.034Z,17.02
2023-03-17T06:11:03.905Z,17.01
2023-03-17T06:15:06.428Z,16.99
2023-03-17T06:19:08.238Z,16.99
2023-03-17T06:23:09.952Z,16.97
2023-03-17T06:27:13.160Z,16.97
2023-03-17T06:31:14.926Z,16.95
2023-03-17T06:35:18.149Z,16.95
2023-03-17T06:39:20.071Z,16.94
2023-03-17T06:43:22.342Z,16.94
2023-03-17T06:47:25.955Z,16.92
2023-03-17T06:51:28.212Z,16.91
2023-03-17T06:55:30.778Z,16.90
2023-03-17T06:59:33.387Z,16.89
2023-03-17T07:03:37.462Z,16.90
2023-03-17T07:07:41.057Z,16.89
2023-03-17T07:11:43.048Z,16.87
2023-03-17T07:15:45.270Z,16.87
2023-03-17T07:19:47.101Z,16.86
2023-03-17T07:23:48.822Z,16.85
2023-03-17T07:27:51.989Z,16.85
2023-03-17T07:31:54.007Z,16.85
2023-03-17T07:35:55.865Z,16.83
2023-03-17T07:39:57.653Z,16.83
2023-03-17T07:43:59.358Z,16.82
2023-03-17T07:48:01.418Z,16.81
2023-03-17T07:52:03.295Z,16.81
2023-03-17T07:56:05.498Z,16.80
2023-03-17T08:00:09.906Z,16.80
2023-03-17T08:04:14.917Z,16.79
2023-03-17T08:08:16.616Z,16.78
2023-03-17T08:12:18.495Z,16.77
2023-03-17T08:16:20.200Z,16.77
2023-03-17T08:20:22.078Z,16.76
2023-03-17T08:24:23.801Z,16.76
2023-03-17T08:28:25.723Z,16.76
2023-03-17T08:32:27.455Z,16.75
2023-03-17T08:36:29.965Z,16.74
2023-03-17T08:40:31.978Z,16.74
2023-03-17T08:44:34.478Z,16.73
2023-03-17T08:48:37.499Z,16.72
2023-03-17T08:52:39.633Z,16.71
2023-03-17T08:56:42.144Z,16.71
2023-03-17T09:00:43.915Z,16.71
2023-03-17T09:04:47.114Z,16.70
2023-03-17T09:08:55.213Z,16.70
2023-03-17T09:13:03.044Z,16.71
2023-03-17T09:17:05.967Z,16.70
2023-03-17T09:21:08.881Z,16.69
2023-03-17T09:25:11.139Z,16.70
2023-03-17T09:29:13.218Z,16.68
2023-03-17T09:33:15.797Z,16.70
2023-03-17T09:37:17.495Z,16.70
2023-03-17T09:41:57.553Z,16.69
2023-03-17T09:46:11.324Z,16.70
2023-03-17T09:50:17.788Z,16.70
2023-03-17T09:54:32.814Z,16.69
2023-03-17T09:58:36.916Z,16.68
2023-03-17T10:02:38.739Z,16.68
2023-03-17T10:06:44.463Z,16.68
2023-03-17T10:10:48.738Z,16.68
2023-03-17T10:14:54.825Z,16.67
2023-03-17T10:19:01.982Z,16.67
2023-03-17T10:23:07.752Z,16.67
2023-03-17T10:27:12.534Z,16.66
2023-03-17T10:31:18.759Z,16.66
2023-03-17T10:35:22.189Z,16.67
2023-03-17T10:39:24.738Z,16.67
2023-03-17T10:43:35.650Z,16.67
2023-03-17T10:47:39.937Z,16.66
2023-03-17T10:51:46.495Z,16.67
2023-03-17T10:55:51.108Z,16.65
2023-03-17T10:59:59.057Z,16.66
2023-03-17T11:04:02.788Z,16.66
2023-03-17T11:08:18.261Z,16.65
2023-03-17T11:12:23.054Z,16.65
2023-03-17T11:16:24.995Z,16.65
2023-03-17T11:20:49.969Z,16.64
2023-03-17T11:25:21.086Z,16.64
2023-03-17T11:29:26.691Z,16.64
2023-03-17T11:34:08.769Z,16.63
2023-03-17T11:38:28.288Z,16.63
2023-03-17T11:42:44.065Z,16.63
2023-03-17T11:47:18.413Z,16.64
2023-03-17T11:51:31.944Z,16.62
2023-03-17T11:55:51.728Z,16.62
2023-03-17T12:00:00.466Z,16.62
2023-03-17T12:04:08.373Z,16.62
2023-03-17T12:08:20.746Z,16.61
2023-03-17T12:12:30.477Z,16.62
2023-03-17T12:16:39.125Z,16.61
2023-03-17T12:20:54.278Z,16.60
2023-03-17T12:25:02.065Z,16.61
2023-03-17T12:29:13.780Z,16.60
2023-03-17T12:33:53.960Z,16.60
2023-03-17T12:37:58.648Z,16.59
2023-03-17T12:42:05.506Z,16.58
2023-03-17T12:46:25.629Z,16.58
2023-03-17T12:50:54.967Z,16.59
2023-03-17T12:55:02.701Z,16.59
2023-03-17T12:59:08.772Z,16.59
2023-03-17T13:03:16.869Z,16.59
2023-03-17T13:07:38.610Z,16.58
2023-03-17T13:11:47.790Z,16.58
2023-03-17T13:15:55.594Z,16.58
2023-03-17T13:20:12.452Z,16.57
2023-03-17T13:24:18.146Z,16.57
2023-03-17T13:28:45.206Z,16.57
2023-03-17T13:33:19.790Z,16.58
2023-03-17T13:37:27.581Z,16.57
2023-03-17T13:41:49.849Z,16.57
2023-03-17T13:45:52.081Z,16.57
2023-03-17T13:50:00.096Z,16.57
2023-03-17T13:54:19.964Z,16.56
2023-03-17T13:58:26.084Z,16.55
2023-03-17T14:02:31.867Z,16.56
2023-03-17T14:06:37.875Z,16.56
2023-03-17T14:10:39.653Z,16.56
2023-03-17T14:14:45.522Z,16.56
2023-03-17T14:18:56.049Z,16.56
2023-03-17T14:23:03.166Z,16.57
2023-03-17T14:27:08.066Z,16.57
2023-03-17T14:31:22.327Z,16.59
2023-03-17T14:35:24.085Z,16.60
2023-03-17T14:39:26.332Z,16.61
2023-03-17T14:43:32.179Z,16.65
2023-03-17T14:47:39.965Z,16.68
2023-03-17T14:51:42.543Z,16.71
2023-03-17T14:55:44.442Z,16.76
2023-03-17T15:00:16.144Z,16.80
2023-03-17T15:04:21.498Z,16.84
2023-03-17T15:08:36.473Z,16.86
2023-03-17T15:12:38.521Z,16.88
2023-03-17T15:16:47.178Z,16.90
2023-03-17T15:20:49.400Z,16.93
2023-03-17T15:25:00.394Z,16.94
2023-03-17T15:29:02.130Z,16.96
2023-03-17T15:33:04.507Z,16.97
2023-03-17T15:37:15.478Z,16.96
2023-03-17T15:41:17.736Z,16.95
2023-03-17T15:45:19.573Z,16.96
2023-03-17T15:49:26.466Z,16.97
2023-03-17T15:53:29.004Z,16.98
2023-03-17T15:57:30.655Z,17.00
2023-03-17T16:01:32.587Z,17.00
2023-03-17T16:05:36.217Z,17.02
2023-03-17T16:09:38.332Z,17.04
2023-03-17T16:13:40.053Z,17.06
2023-03-17T16:17:42.987Z,17.07
2023-03-17T16:21:44.840Z,17.08
2023-03-17T16:25:46.998Z,17.10
2023-03-17T16:29:48.683Z,17.12
2023-03-17T16:33:52.786Z,17.12
2023-03-17T16:37:54.620Z,17.10
2023-03-17T16:41:56.313Z,17.10
2023-03-17T16:46:00.547Z,17.13
2023-03-17T16:50:02.389Z,17.14
2023-03-17T16:54:04.228Z,17.15
2023-03-17T16:58:20.838Z,17.16
2023-03-17T17:02:22.606Z,17.15
2023-03-17T17:06:24.731Z,17.17
2023-03-17T17:10:28.783Z,17.17
2023-03-17T17:14:30.741Z,17.16
2023-03-17T17:18:32.501Z,17.13
2023-03-17T17:22:34.311Z,17.10
2023-03-17T17:26:36.003Z,17.07
2023-03-17T17:30:38.138Z,17.05
2023-03-17T17:34:39.928Z,17.02
2023-03-17T17:38:42.452Z,17.01
2023-03-17T17:42:46.473Z,16.98
2023-03-17T17:46:48.414Z,16.97
2023-03-17T17:50:52.166Z,16.96
2023-03-17T17:54:53.882Z,16.95
2023-03-17T17:58:55.563Z,16.93
2023-03-17T18:02:57.433Z,16.92
2023-03-17T18:06:59.124Z,16.91
2023-03-17T18:11:01.024Z,16.91
2023-03-17T18:15:02.943Z,16.90
2023-03-17T18:19:06.847Z,16.88
2023-03-17T18:23:08.701Z,16.88
2023-03-17T18:27:10.802Z,16.87
2023-03-17T18:31:17.820Z,16.86
2023-03-17T18:35:21.901Z,16.85
2023-03-17T18:39:24.036Z,16.84
2023-03-17T18:43:25.796Z,16.84
2023-03-17T18:47:27.514Z,16.83
2023-03-17T18:51:29.316Z,16.83
2023-03-17T18:55:31.170Z,16.82
2023-03-17T18:59:32.951Z,16.81
2023-03-17T19:03:35.052Z,16.82
2023-03-17T19:07:40.105Z,16.81
2023-03-17T19:11:42.125Z,16.81
2023-03-17T19:15:43.846Z,16.81
2023-03-17T19:19:45.684Z,16.81
2023-03-17T19:23:47.523Z,16.80
2023-03-17T19:27:49.532Z,16.80
2023-03-17T19:31:51.258Z,16.80
2023-03-17T19:35:56.140Z,16.79
2023-03-17T19:39:58.305Z,16.79
2023-03-17T19:44:01.129Z,16.79
2023-03-17T19:48:03.063Z,16.79
2023-03-17T19:52:06.573Z,16.77
2023-03-17T19:56:08.661Z,16.77
2023-03-17T20:00:11.890Z,16.76
2023-03-17T20:04:17.691Z,16.76
2023-03-17T20:08:19.904Z,16.75
2023-03-17T20:12:21.866Z,16.75
2023-03-17T20:16:23.572Z,16.74
2023-03-17T20:20:25.313Z,16.73
2023-03-17T20:24:29.205Z,16.75
2023-03-17T20:28:31.514Z,16.74
2023-03-17T20:32:34.493Z,16.72
2023-03-17T20:36:37.512Z,16.72
2023-03-17T20:40:39.744Z,16.70
2023-03-17T20:44:42.330Z,16.71
2023-03-17T20:48:46.615Z,16.70
2023-03-17T20:52:49.565Z,16.69
2023-03-17T20:56:53.736Z,16.70
2023-03-17T21:00:57.142Z,16.69
2023-03-17T21:04:58.828Z,16.68
2023-03-17T21:09:00.629Z,16.69
2023-03-17T21:13:02.923Z,16.68
2023-03-17T21:17:04.617Z,16.68
2023-03-17T21:21:06.329Z,16.67
2023-03-17T21:25:09.914Z,16.67
2023-03-17T21:29:11.873Z,16.69
2023-03-17T21:33:13.775Z,16.76
2023-03-17T21:37:18.392Z,16.83
2023-03-17T21:41:23.439Z,16.91
2023-03-17T21:45:25.208Z,17.00
2023-03-17T21:49:26.897Z,17.06
2023-03-17T21:53:28.681Z,17.11
2023-03-17T21:57:30.952Z,17.16
2023-03-17T22:01:33.333Z,17.23
2023-03-17T22:05:36.080Z,17.27
2023-03-17T22:09:37.913Z,17.32
2023-03-17T22:13:41.208Z,17.37
2023-03-17T22:17:42.918Z,17.39
2023-03-17T22:21:44.688Z,17.41
2023-03-17T22:25:46.625Z,17.43
2023-03-17T22:29:48.427Z,17.47
2023-03-17T22:33:53.320Z,17.48
2023-03-17T22:37:55.064Z,17.50
2023-03-17T22:41:57.302Z,17.52
2023-03-17T22:45:59.186Z,17.54
2023-03-17T22:50:00.951Z,17.54
2023-03-17T22:54:03.298Z,17.57
2023-03-17T22:58:05.205Z,17.59
2023-03-17T23:02:08.460Z,17.61
2023-03-17T23:06:11.578Z,17.62
2023-03-17T23:10:15.933Z,17.64
2023-03-17T23:14:17.738Z,17.64
2023-03-17T23:18:19.578Z,17.60
2023-03-17T23:22:21.894Z,17.57
2023-03-17T23:26:23.645Z,17.53
2023-03-17T23:30:25.515Z,17.48
2023-03-17T23:34:27.305Z,17.46
2023-03-17T23:38:29.756Z,17.45
2023-03-17T23:42:31.496Z,17.44
2023-03-17T23:46:33.599Z,17.42
2023-03-17T23:50:36.060Z,17.42
2023-03-17T23:54:38.836Z,17.42
2023-03-17T23:58:43.376Z,17.42
